Detall de PIREP

Printer-friendly versionPDF version

[2015/08/29 16:11:00]
Flight IATA:CT3316
Pilot Number:042
Company ICAO:CAT
Aircraft Type:B752/E
PAX:0
Aircraft Registration:CARGO
Departing Airport: LEZG
Destination Airport: OSDI
Alternate Airport:OLBA
Online: VATSIM
Route:PONEN UN870 BCN UM985 LUMAS UT16 TINOT UM731 MALAV UM601 BALMA UR655 LEBOR
Flight Level:F370
No Slew and time accel
No pause
Crash detect
Detect pilot in Cockpit between each 30 and 45 minutes
16:11 Zero fuel Weight: 200009 Lbs, Fuel Weight: 75108 Lbs
16:11 VATSIM:LEZG 291530Z 09012KT CAVOK 34/12 Q1016
16:11 VATSIM:OSDI 291600Z 22012KT CAVOK 30/12 Q1011
16:15 Parking Brakes off
16:21 Take-off
16:21 Take off Weight: 273307 Lbs
16:21 Wind: 095º @ 015 Knots Heading: 302º
16:21 POS N41º 40´ 00´´ W001º 02´ 03´´
16:21 Gear Up: 182 Knots
16:21 Flaps:3 at 182 Knots
16:22 Flaps:2 at 195 Knots
16:22 Flaps:1 at 201 Knots
16:22 Flaps:0 at 214 Knots
16:36 Wind:222º@009 Knots Heading: 091º Ground Speed: 459 Knots Altitude 26975 ft
16:43 TOC
16:43 Fuel Weight: 66516 Lb
16:51 Wind:196º@008 Knots Heading: 077º Ground Speed: 466 Knots Altitude 37165 ft
17:06 Wind:158º@007 Knots Heading: 023º Ground Speed: 467 Knots Altitude 37188 ft
17:21 Wind:104º@004 Knots Heading: 124º Ground Speed: 456 Knots Altitude 37175 ft
17:36 Wind:125º@014 Knots Heading: 113º Ground Speed: 449 Knots Altitude 37171 ft
17:51 Wind:140º@031 Knots Heading: 108º Ground Speed: 436 Knots Altitude 37185 ft
18:06 Wind:133º@034 Knots Heading: 108º Ground Speed: 433 Knots Altitude 37178 ft
18:21 Wind:128º@041 Knots Heading: 100º Ground Speed: 427 Knots Altitude 37260 ft
18:36 Wind:120º@043 Knots Heading: 108º Ground Speed: 421 Knots Altitude 37158 ft
18:51 Wind:109º@039 Knots Heading: 108º Ground Speed: 424 Knots Altitude 37109 ft
19:06 Wind:099º@036 Knots Heading: 115º Ground Speed: 429 Knots Altitude 37099 ft
19:21 Wind:084º@030 Knots Heading: 109º Ground Speed: 437 Knots Altitude 37139 ft
19:36 Wind:045º@040 Knots Heading: 094º Ground Speed: 440 Knots Altitude 37034 ft
19:51 Wind:020º@049 Knots Heading: 101º Ground Speed: 459 Knots Altitude 36961 ft
20:06 Wind:327º@040 Knots Heading: 104º Ground Speed: 495 Knots Altitude 36978 ft
20:21 Wind:263º@056 Knots Heading: 112º Ground Speed: 520 Knots Altitude 36902 ft
20:31 TOD
20:31 Fuel Weight: 34292 Lb
20:36 Wind:246º@065 Knots Heading: 093º Ground Speed: 540 Knots Altitude 30629 ft
20:44 Flaps:1 at 275 Knots
20:48 Flaps:2 at 230 Knots
20:49 Flaps:3 at 208 Knots
20:51 Wind:333º@007 Knots Heading: 153º Ground Speed: 213 Knots Altitude 5380 ft
20:59 Gear Down: 188 Knots
20:59 Flaps:4 at 187 Knots
20:59 Flaps:5 at 185 Knots
20:59 Flaps:6 at 168 Knots
20:59 Flaps:5 at 163 Knots
20:59 Flaps:6 at 160 Knots
21:02 TouchDown:Rate -293 ft/min Speed: 149 Knots
21:02 VATSIM:OSDI 292100Z 22010KT CAVOK 24/14 Q1012
21:02 Land
21:02 Wind:200º@008 Knots
21:02 Heading: 226º
21:02 Flight Duration: 04:41
21:02 Landing Weight: 230536 Lbs
21:02 POS N33º 25´ 38´´ E036º 31´ 13´´
21:05 Parking brakes on
21:05 Block to Block Duration: 04:50
21:05 Final Fuel: 30066 Lbls
21:05 Spent Fuel: 45041 Lbls
21:05 Flight Length: 2031 NM
21:05 TOD Land Length: 165 NM

Exportar CSV

Powered by Drupal - Modified by Danger4k